Brookville, KS (67425)

4:55 AM CDT on October 01, 2014 (GMT -0500)
Peters Science Hall | Change Station
CLOSE
Current Station
Personal Weather Station
Location: Salina, KS
Elevation: 1225 ft
Nearby Weather Stations

Elev 1225 ft 38.81 °N, 97.61 °W | Updated 5 seconds ago

Partly Cloudy
Partly Cloudy
68.6 °F
Feels Like 68.6 °F
N
4.0
Wind Variable Wind from SSW
Gusts 11.0 mph

Today
High -- | Low -- °F
--% Chance of Precip.
Yesterday
High -- | Low -- °F
Precip. -- in
7:27 AM 7:14 PM
Waxing Crescent, 46% visible
Pressure 29.69 in
Visibility 0.5 miles
Clouds
Dew Point 64 °F
Humidity 85%
Rainfall 0.21 in
Snow Depth Not available.
UV 0.0 out of 12
Pollen 3.00 out of 12
Air Quality Not available.
Flu Activity Not available.
SPECI KRSL 010921Z AUTO 26004KT 1/2SM FG VV002 15/15 A2969 RMK AO2 T01500150

More Conditions Fewer Conditions

Pressure 29.69 in
Visibility 0.5 miles
Clouds
Dew Point 64 °F
Humidity 85%
Rainfall 0.21 in
Snow Depth Not available.
UV 0.0 out of 12
Pollen 3.00 out of 12
Air Quality Not available.
Flu Activity Not available.
SPECI KRSL 010921Z AUTO 26004KT 1/2SM FG VV002 15/15 A2969 RMK AO2 T01500150

More Conditions Fewer Conditions

10-Day Weather Forecast

Almanac

Astronomy

Oct. 01, 2014 Rise Set
Actual Time 7:27 AM CDT 7:14 PM CDT
Civil Twilight 7:00 AM CDT 7:40 PM CDT
Nautical Twilight 6:29 AM CDT 8:11 PM CDT
Astronomical Twilight 5:58 AM CDT 8:42 PM CDT
Moon 2:26 PM CDT No Moon Set
Length of Visible Light 12h 39m
Length of Day
11h 46m
Tomorrow will be 2m 30s shorter.
Waxing Crescent, 46% of the Moon is Illuminated
Today
Waxing Crescent
Oct 1
First Quarter
Oct 8
Full
Oct 15
Last Quarter
Oct 23
New

Today's Extremes

State Highs State Lows

Community

WunderPhotos

Upload Photos

1,757,904 photos uploaded!

WunderBlogs® & News

Nearby

Snow Depth

Station Depth Elevation
No new snow has been reported.

Earthquake Activity

City Distance Mag. Time & Date
Harper, Kansas 110 miles 3.3 1:11 AM CDT
2014-10-01
Medford, Oklahoma 136 miles 2.5 10:49 PM CDT
2014-09-30
Medford, Oklahoma 137 miles 2.8 8:30 PM CDT
2014-09-30
Harper, Kansas 109 miles 2.9 1:49 PM CDT
2014-09-30
Minimum magnitude displayed is 2.5.

Coastal Water Temperatures

Place Temperature
No Stations Reporting

Nearby Weather Stations